createdAt,value
2022-10-01T06:38:34.287Z,81.71
2022-10-01T06:41:36.138Z,82.46
2022-10-01T06:44:37.830Z,82.98
2022-10-01T06:47:42.349Z,80.87
2022-10-01T06:50:45.582Z,79.20
2022-10-01T06:53:47.087Z,78.36
2022-10-01T06:56:48.662Z,77.88
2022-10-01T06:59:50.380Z,78.33
2022-10-01T07:02:52.067Z,79.24
2022-10-01T07:05:53.695Z,79.59
2022-10-01T07:08:55.469Z,80.36
2022-10-01T07:11:57.448Z,80.34
2022-10-01T07:14:58.969Z,80.77
2022-10-01T07:18:00.582Z,80.04
2022-10-01T07:21:02.080Z,80.21
2022-10-01T07:24:03.904Z,80.26
2022-10-01T07:27:07.545Z,80.87
2022-10-01T07:30:09.712Z,80.05
2022-10-01T07:33:11.225Z,81.50
2022-10-01T07:36:13.369Z,80.68
2022-10-01T07:39:14.848Z,80.35
2022-10-01T07:42:16.356Z,79.96
2022-10-01T07:45:17.801Z,79.63
2022-10-01T07:48:19.334Z,79.26
2022-10-01T07:51:21.009Z,79.79
2022-10-01T07:54:22.844Z,79.31
2022-10-01T07:57:24.272Z,78.93
2022-10-01T08:00:26.720Z,78.97
2022-10-01T08:03:31.075Z,78.65
2022-10-01T08:06:32.601Z,78.64
2022-10-01T08:09:34.665Z,78.60
2022-10-01T08:12:36.164Z,77.98
2022-10-01T08:15:37.663Z,78.17
2022-10-01T08:18:42.381Z,78.71
2022-10-01T08:21:43.884Z,78.59
2022-10-01T08:24:45.439Z,78.21
2022-10-01T08:27:48.277Z,77.75
2022-10-01T08:30:49.779Z,78.94
2022-10-01T08:33:52.083Z,77.56
2022-10-01T08:41:04.714Z,77.14
2022-10-01T08:44:07.503Z,77.41
2022-10-01T08:47:52.537Z,77.96
2022-10-01T08:51:04.881Z,80.19
2022-10-01T08:54:28.483Z,82.07
2022-10-01T08:57:34.899Z,82.95
2022-10-01T09:00:40.216Z,82.44
2022-10-01T09:03:49.212Z,82.98
2022-10-01T09:07:10.328Z,82.89
2022-10-01T09:10:32.791Z,82.44
2022-10-01T09:13:57.554Z,81.49
2022-10-01T09:17:19.234Z,80.53
2022-10-01T09:20:28.364Z,79.50
2022-10-01T09:23:32.045Z,78.74
2022-10-01T09:26:36.489Z,78.50
2022-10-01T09:30:01.559Z,78.19
2022-10-01T09:33:12.813Z,77.70
2022-10-01T09:36:30.390Z,77.29
2022-10-01T09:39:57.185Z,77.03
2022-10-01T09:43:01.574Z,76.87
2022-10-01T09:46:07.122Z,77.07
2022-10-01T09:49:20.067Z,76.45
2022-10-01T09:52:32.392Z,76.64
2022-10-01T09:55:40.999Z,76.02
2022-10-01T09:58:47.816Z,76.37
2022-10-01T10:02:01.059Z,75.83
2022-10-01T10:05:05.897Z,75.85
2022-10-01T10:08:20.083Z,75.07
2022-10-01T10:11:24.888Z,75.17
2022-10-01T10:14:36.207Z,75.38
2022-10-01T10:17:43.141Z,75.33
2022-10-01T10:20:45.537Z,75.47
2022-10-01T10:23:56.600Z,75.61
2022-10-01T10:27:00.353Z,76.30
2022-10-01T10:30:16.158Z,76.63
2022-10-01T10:33:20.781Z,78.37
2022-10-01T10:36:29.054Z,79.73
2022-10-01T10:39:40.625Z,80.68
2022-10-01T10:42:48.446Z,81.27
2022-10-01T10:45:56.398Z,80.58
2022-10-01T10:49:24.753Z,80.33
2022-10-01T10:52:36.400Z,80.02
2022-10-01T10:55:39.166Z,79.18
2022-10-01T10:58:42.519Z,80.05
2022-10-01T11:01:46.089Z,79.58
2022-10-01T11:04:47.712Z,80.13
2022-10-01T11:07:54.358Z,80.34
2022-10-01T11:11:25.369Z,80.17
2022-10-01T11:14:26.837Z,81.19
2022-10-01T11:17:43.469Z,80.93
2022-10-01T11:20:54.262Z,80.62
2022-10-01T11:24:21.086Z,80.00
2022-10-01T11:28:04.790Z,80.06
2022-10-01T11:31:28.047Z,79.21
2022-10-01T11:34:50.406Z,78.85
2022-10-01T11:38:10.622Z,78.70
2022-10-01T11:41:34.868Z,78.28
2022-10-01T11:45:02.994Z,78.89
2022-10-01T11:48:12.612Z,78.32
2022-10-01T11:51:19.443Z,77.60
2022-10-01T11:54:24.457Z,77.87
2022-10-01T11:57:45.431Z,77.45
2022-10-01T12:00:58.664Z,78.01
2022-10-01T12:04:17.312Z,77.73
2022-10-01T12:07:39.060Z,78.47
2022-10-01T12:10:47.094Z,77.88
2022-10-01T12:13:57.192Z,77.45
2022-10-01T12:17:09.145Z,77.93
2022-10-01T12:20:26.033Z,77.35
2022-10-01T12:23:32.103Z,77.37
2022-10-01T12:26:58.227Z,77.41
2022-10-01T12:30:09.051Z,76.77
2022-10-01T12:33:23.037Z,76.61
2022-10-01T12:36:40.718Z,76.23
2022-10-01T12:40:06.778Z,76.26
2022-10-01T12:43:29.507Z,76.15
2022-10-01T12:46:59.435Z,76.19
2022-10-01T12:50:12.911Z,75.97
2022-10-01T12:53:28.033Z,76.03
2022-10-01T12:56:38.161Z,75.87
2022-10-01T13:00:09.689Z,75.78
2022-10-01T13:03:11.132Z,75.95
2022-10-01T13:06:23.904Z,75.68
2022-10-01T13:09:51.356Z,78.35
2022-10-01T13:13:14.891Z,80.06
2022-10-01T13:17:07.381Z,79.86
2022-10-01T13:20:23.830Z,80.45
2022-10-01T13:23:39.335Z,81.16
2022-10-01T13:26:53.847Z,81.13
2022-10-01T13:30:21.262Z,81.25
2022-10-01T13:33:26.238Z,81.01
2022-10-01T13:36:30.483Z,81.18
2022-10-01T13:39:38.882Z,80.83
2022-10-01T13:43:26.806Z,81.22
2022-10-01T13:46:51.446Z,80.84
2022-10-01T13:49:56.560Z,80.96
2022-10-01T13:53:08.453Z,81.17
2022-10-01T13:56:14.328Z,80.93
2022-10-01T13:59:34.171Z,81.17
2022-10-01T14:02:39.431Z,81.33
2022-10-01T14:05:43.084Z,80.77
2022-10-01T14:09:13.997Z,80.84
2022-10-01T14:13:05.299Z,81.03
2022-10-01T14:16:07.539Z,81.12
2022-10-01T14:19:10.032Z,80.69
2022-10-01T14:22:30.944Z,80.88
2022-10-01T14:25:38.242Z,79.91
2022-10-01T14:29:14.793Z,79.77
2022-10-01T14:32:34.279Z,79.67
2022-10-01T14:35:47.805Z,79.61
2022-10-01T14:38:49.340Z,79.13
2022-10-01T14:41:54.052Z,79.33
2022-10-01T14:44:55.528Z,79.16
2022-10-01T14:48:04.440Z,79.12
2022-10-01T14:51:22.051Z,78.77
2022-10-01T14:54:24.272Z,78.32
2022-10-01T14:57:33.688Z,79.22
2022-10-01T15:00:35.467Z,79.32
2022-10-01T15:03:38.969Z,78.89
2022-10-01T15:06:43.633Z,78.42
2022-10-01T15:09:46.412Z,78.98
2022-10-01T15:12:51.749Z,78.83
2022-10-01T15:15:54.671Z,78.62
2022-10-01T15:19:07.572Z,78.58
2022-10-01T15:22:12.810Z,78.43
2022-10-01T15:25:24.293Z,78.50
2022-10-01T15:28:33.901Z,79.52
2022-10-01T15:31:36.522Z,79.84
2022-10-01T18:11:21.713Z,91.13
2022-10-01T18:14:23.920Z,90.46
2022-10-01T18:17:26.027Z,90.31
2022-10-01T18:20:28.040Z,90.26
2022-10-01T18:23:29.765Z,90.67
2022-10-01T18:26:31.612Z,90.49
2022-10-01T18:29:33.157Z,90.89
2022-10-01T18:32:48.192Z,90.69
2022-10-01T18:35:54.649Z,90.30
2022-10-01T18:39:07.323Z,90.18
2022-10-01T18:42:15.258Z,90.48
2022-10-01T18:45:27.162Z,90.18
2022-10-01T18:48:48.815Z,89.66
2022-10-01T18:52:18.750Z,90.01
2022-10-01T18:55:37.400Z,89.37
2022-10-01T18:59:14.731Z,88.76
2022-10-01T19:02:54.199Z,88.88
2022-10-01T19:06:14.036Z,89.12
2022-10-01T19:09:35.758Z,88.31
2022-10-01T19:12:52.128Z,87.90
2022-10-01T19:16:20.082Z,88.54
2022-10-01T19:19:33.516Z,88.53
2022-10-01T19:23:10.548Z,88.10
2022-10-01T19:26:21.153Z,88.15
2022-10-01T19:29:29.675Z,87.83
2022-10-01T19:32:55.199Z,89.17
2022-10-01T19:35:59.552Z,89.16
2022-10-01T19:39:06.409Z,88.72
2022-10-01T19:42:31.308Z,89.13
2022-10-01T19:45:49.170Z,88.49
2022-10-01T19:48:57.035Z,88.47
2022-10-01T19:52:02.317Z,88.81
2022-10-01T19:55:13.168Z,88.53
2022-10-01T19:58:20.571Z,88.07
2022-10-01T20:01:27.767Z,87.91
2022-10-01T20:05:01.599Z,87.89
2022-10-01T20:08:14.332Z,87.97
2022-10-01T20:11:20.426Z,87.39
2022-10-01T20:15:08.546Z,87.40
2022-10-01T20:18:30.290Z,87.57
2022-10-01T20:21:50.801Z,87.12
2022-10-01T20:25:00.194Z,86.52
2022-10-01T20:28:24.952Z,86.92
2022-10-01T20:31:26.639Z,86.35
2022-10-01T20:34:43.935Z,85.98
2022-10-01T20:37:45.380Z,86.63
2022-10-01T20:40:52.298Z,86.63
2022-10-01T20:43:58.499Z,85.80
2022-10-01T20:47:06.489Z,85.71
2022-10-01T20:50:18.616Z,85.75
2022-10-01T20:53:38.755Z,85.96
2022-10-01T20:56:56.431Z,85.38
2022-10-01T21:00:06.453Z,86.09
2022-10-01T21:03:32.069Z,86.83
2022-10-01T21:06:39.163Z,86.89
2022-10-01T21:09:49.917Z,87.16
2022-10-01T21:13:05.407Z,87.38
2022-10-01T21:16:28.276Z,88.68
2022-10-01T21:19:40.739Z,87.99
2022-10-01T21:23:13.631Z,88.68
2022-10-01T21:26:26.080Z,88.45
2022-10-01T21:29:50.192Z,88.26
2022-10-01T21:33:13.909Z,88.30
2022-10-01T21:36:30.129Z,88.63
2022-10-01T21:39:37.403Z,87.92
2022-10-01T21:42:57.826Z,88.48
2022-10-01T21:46:40.148Z,88.24
2022-10-01T21:50:14.053Z,88.21
2022-10-01T21:53:29.014Z,87.95
2022-10-01T21:56:37.280Z,88.57
2022-10-01T22:00:09.105Z,88.06
2022-10-01T22:03:36.282Z,88.72
2022-10-01T22:06:53.333Z,88.37
2022-10-01T22:10:19.541Z,88.07
2022-10-01T22:13:25.042Z,88.58
2022-10-01T22:16:32.539Z,87.79
2022-10-01T22:19:37.459Z,87.51
2022-10-01T22:22:39.065Z,87.94
2022-10-01T22:25:47.730Z,87.58
2022-10-01T22:28:54.952Z,87.23
2022-10-01T22:32:03.324Z,87.55
2022-10-01T22:35:12.372Z,87.22
2022-10-01T22:38:23.344Z,86.84
2022-10-01T22:41:46.691Z,87.66
2022-10-01T22:44:48.312Z,86.78
2022-10-01T22:48:10.685Z,87.33
2022-10-01T22:51:50.107Z,87.14
2022-10-01T22:55:00.746Z,87.10
2022-10-01T22:58:28.661Z,86.59
2022-10-01T23:01:48.797Z,86.21
2022-10-01T23:04:59.169Z,86.60
2022-10-01T23:08:26.795Z,86.14
2022-10-01T23:11:56.338Z,86.22
2022-10-01T23:15:25.306Z,86.19
2022-10-01T23:18:48.956Z,85.93
2022-10-01T23:22:14.117Z,85.63
2022-10-01T23:25:25.668Z,86.20
2022-10-01T23:28:50.649Z,85.91
2022-10-01T23:32:10.412Z,85.93
2022-10-01T23:35:13.379Z,85.42
2022-10-01T23:38:23.929Z,85.54
2022-10-01T23:41:38.333Z,85.57
2022-10-01T23:44:47.769Z,85.39
2022-10-01T23:48:19.036Z,85.21
2022-10-01T23:51:30.782Z,85.78
2022-10-01T23:54:57.212Z,85.24
2022-10-01T23:58:03.462Z,85.67
